Time;durP1;ratioP1;P1;durP2;ratioP2;P2;SDS_P1;SDS_P2;PMS_P1;PMS_P2;Temp;Humidity;BMP_temperature;BMP_pressure;BME280_temperature;BME280_humidity;BME280_pressure;Samples;Min_cycle;Max_cycle;Signal;HPM_P1;HPM_P2
2022/01/29 00:01:11;;;;;;;11.32;6.30;;;-8.10;99.90;;;;;;4390221;32;20069;-63
2022/01/29 00:03:37;;;;;;;11.27;6.60;;;-8.00;99.90;;;;;;4390533;32;20092;-62
2022/01/29 00:06:04;;;;;;;10.27;6.87;;;-8.10;99.90;;;;;;4390901;32;20082;-62
2022/01/29 00:08:31;;;;;;;10.07;7.07;;;-8.10;99.90;;;;;;4390333;32;20212;-63
2022/01/29 00:11:08;;;;;;;10.90;6.60;;;-8.10;99.90;;;;;;4391294;32;20536;-62
2022/01/29 00:13:34;;;;;;;9.70;7.18;;;-8.00;99.90;;;;;;4378478;32;20077;-62
2022/01/29 00:16:01;;;;;;;10.73;7.35;;;-8.10;99.90;;;;;;4390088;32;20170;-62
2022/01/29 00:18:27;;;;;;;11.57;7.22;;;-8.20;99.90;;;;;;4390036;32;20085;-62
2022/01/29 00:20:54;;;;;;;10.90;7.12;;;-8.20;99.90;;;;;;4377868;32;20089;-63
2022/01/29 00:23:20;;;;;;;10.90;6.72;;;-8.10;99.90;;;;;;4389925;32;20164;-61
2022/01/29 00:25:47;;;;;;;10.88;7.22;;;-8.30;99.90;;;;;;4389572;32;20503;-62
2022/01/29 00:28:14;;;;;;;9.57;6.60;;;-8.20;99.90;;;;;;4394293;32;20081;-64
2022/01/29 00:30:43;;;;;;;10.30;6.97;;;-8.20;99.90;;;;;;4394800;32;20088;-62
2022/01/29 00:33:10;;;;;;;9.68;6.90;;;-8.20;99.90;;;;;;4393410;32;20085;-63
2022/01/29 00:35:38;;;;;;;10.25;6.80;;;-8.20;99.90;;;;;;4393431;32;20085;-63
2022/01/29 00:38:04;;;;;;;10.55;6.97;;;-8.10;99.90;;;;;;4392880;32;20173;-63
2022/01/29 00:40:31;;;;;;;11.32;6.93;;;-8.10;99.90;;;;;;4394111;32;20094;-63
2022/01/29 00:43:00;;;;;;;10.05;6.57;;;-8.20;99.90;;;;;;4380140;32;20103;-62
2022/01/29 00:45:26;;;;;;;11.10;7.35;;;-8.20;99.90;;;;;;4392859;32;20124;-62
2022/01/29 00:47:53;;;;;;;10.77;6.75;;;-8.20;99.90;;;;;;4379997;32;20070;-62
2022/01/29 00:50:20;;;;;;;11.48;7.22;;;-8.20;99.90;;;;;;4392704;32;20076;-63
2022/01/29 00:52:47;;;;;;;10.18;7.45;;;-8.10;99.90;;;;;;4393839;32;20512;-63
2022/01/29 00:55:14;;;;;;;10.02;7.12;;;-8.20;99.90;;;;;;4393298;32;20500;-62
2022/01/29 00:57:42;;;;;;;10.98;7.53;;;-8.20;99.90;;;;;;4392419;32;20066;-63
2022/01/29 01:00:13;;;;;;;11.90;7.45;;;-8.30;99.90;;;;;;4393885;32;20065;-63
2022/01/29 01:02:40;;;;;;;11.65;7.30;;;-8.20;99.90;;;;;;4392704;32;20575;-63
2022/01/29 01:05:07;;;;;;;13.23;8.50;;;-8.30;99.90;;;;;;4392803;32;20159;-62
2022/01/29 01:07:33;;;;;;;10.55;6.87;;;-8.30;99.90;;;;;;4392292;32;20078;-62
2022/01/29 01:10:00;;;;;;;10.15;7.40;;;-8.20;99.90;;;;;;4379851;32;20062;-62
2022/01/29 01:12:26;;;;;;;10.63;6.57;;;-8.20;99.90;;;;;;4380470;32;20439;-63
2022/01/29 01:14:53;;;;;;;11.43;7.57;;;-8.20;99.90;;;;;;4394114;32;20072;-62
2022/01/29 01:17:19;;;;;;;12.55;7.18;;;-8.20;99.90;;;;;;4380981;32;20074;-62
2022/01/29 01:19:46;;;;;;;11.27;7.10;;;-8.20;99.90;;;;;;4393758;32;20070;-62
2022/01/29 01:22:15;;;;;;;12.13;7.18;;;-8.20;99.90;;;;;;4392182;32;20070;-62
2022/01/29 01:24:41;;;;;;;12.23;6.72;;;-8.10;99.90;;;;;;4392374;32;20077;-63
2022/01/29 01:27:08;;;;;;;12.18;6.70;;;-8.10;99.90;;;;;;4393371;32;20073;-62
2022/01/29 01:29:34;;;;;;;11.00;6.60;;;-8.10;99.90;;;;;;4367221;32;20568;-61
2022/01/29 01:32:01;;;;;;;11.95;7.05;;;-8.00;99.90;;;;;;4392032;32;20511;-63
2022/01/29 01:34:31;;;;;;;10.57;6.70;;;-8.10;99.90;;;;;;4392041;32;20529;-63
2022/01/29 01:37:03;;;;;;;11.52;6.65;;;-8.30;99.90;;;;;;4393364;32;20066;-62
2022/01/29 01:39:33;;;;;;;10.13;6.45;;;-8.30;99.90;;;;;;4392537;32;20069;-62
2022/01/29 01:42:05;;;;;;;12.05;6.82;;;-8.60;99.90;;;;;;4379988;32;20424;-62
2022/01/29 01:44:45;;;;;;;10.50;6.28;;;-8.50;99.90;;;;;;4367848;32;20101;-62
2022/01/29 01:47:16;;;;;;;11.85;7.72;;;-8.40;99.90;;;;;;4391841;32;20076;-62
2022/01/29 01:49:43;;;;;;;10.63;7.20;;;-8.40;99.90;;;;;;4393118;32;20084;-62
2022/01/29 01:52:13;;;;;;;12.32;7.20;;;-8.70;99.90;;;;;;4391845;32;20081;-62
2022/01/29 01:54:41;;;;;;;10.20;6.43;;;-8.60;99.90;;;;;;4379693;32;20085;-62
2022/01/29 01:57:08;;;;;;;12.27;7.25;;;-8.80;99.90;;;;;;4379369;32;20101;-61
2022/01/29 01:59:35;;;;;;;9.95;6.70;;;-8.80;99.90;;;;;;4366657;32;20094;-63
2022/01/29 02:02:02;;;;;;;12.23;6.87;;;-8.90;99.90;;;;;;4366574;32;20089;-63
2022/01/29 02:04:29;;;;;;;10.77;7.05;;;-8.90;99.90;;;;;;4392556;32;20081;-62
2022/01/29 02:06:55;;;;;;;10.60;6.45;;;-9.00;99.90;;;;;;4391815;32;20436;-62
2022/01/29 02:09:24;;;;;;;11.88;6.70;;;-9.00;99.90;;;;;;4391662;32;20080;-63
2022/01/29 02:11:57;;;;;;;11.02;7.00;;;-9.00;99.90;;;;;;4391323;32;20595;-63
2022/01/29 02:14:28;;;;;;;10.23;6.72;;;-8.90;99.90;;;;;;4392649;32;20162;-63
2022/01/29 02:16:55;;;;;;;11.12;6.97;;;-8.80;99.90;;;;;;4391167;32;20171;-63
2022/01/29 02:19:22;;;;;;;11.75;7.10;;;-8.90;99.90;;;;;;4392852;32;20169;-63
2022/01/29 02:21:48;;;;;;;12.18;6.95;;;-8.90;99.90;;;;;;4392768;32;20536;-62
2022/01/29 02:24:15;;;;;;;10.73;6.45;;;-8.90;99.90;;;;;;4391155;32;20058;-62
2022/01/29 02:26:41;;;;;;;11.35;7.15;;;-8.90;99.90;;;;;;4391153;32;20077;-63
2022/01/29 02:29:08;;;;;;;9.98;7.07;;;-9.00;99.90;;;;;;4404247;32;20174;-63
2022/01/29 02:31:34;;;;;;;10.23;6.25;;;-9.00;99.90;;;;;;4391533;32;20074;-62
2022/01/29 02:34:01;;;;;;;11.23;7.12;;;-9.00;99.90;;;;;;4392671;32;20070;-62
2022/01/29 02:36:27;;;;;;;10.88;6.72;;;-9.00;99.90;;;;;;4391450;32;20101;-62
2022/01/29 02:38:53;;;;;;;11.20;6.60;;;-9.00;99.90;;;;;;4397219;32;20084;-63
2022/01/29 02:41:22;;;;;;;10.70;6.30;;;-9.00;99.90;;;;;;4383554;32;20096;-64
2022/01/29 02:43:51;;;;;;;11.63;6.70;;;-9.10;99.90;;;;;;4380903;32;20623;-63
2022/01/29 02:48:50;;;;;;;10.77;6.93;;;-9.10;99.90;;;;;;4378168;32;20101;-63
2022/01/29 02:51:18;;;;;;;11.70;7.40;;;-9.10;99.90;;;;;;4392011;32;20077;-62
2022/01/29 02:53:44;;;;;;;9.75;6.55;;;-9.10;99.90;;;;;;4390616;32;20088;-63
2022/01/29 02:56:10;;;;;;;11.25;7.20;;;-9.10;99.90;;;;;;4390799;32;20082;-63
2022/01/29 02:58:37;;;;;;;11.15;6.82;;;-9.10;99.90;;;;;;4390761;32;20518;-63
2022/01/29 03:01:08;;;;;;;10.88;6.40;;;-9.20;99.90;;;;;;4390565;32;20089;-62
2022/01/29 03:03:34;;;;;;;10.82;6.65;;;-9.20;99.90;;;;;;4390593;32;20520;-64
2022/01/29 03:06:08;;;;;;;16.65;7.22;;;-9.20;99.90;;;;;;4378314;32;20108;-64
2022/01/29 03:08:35;;;;;;;13.13;6.62;;;-9.20;99.90;;;;;;4392361;32;20518;-62
2022/01/29 03:11:02;;;;;;;11.00;7.05;;;-9.30;99.90;;;;;;4378501;32;20096;-62
2022/01/29 03:13:28;;;;;;;11.98;7.43;;;-9.20;99.90;;;;;;4390848;32;20085;-64
2022/01/29 03:15:55;;;;;;;11.32;6.82;;;-9.20;99.90;;;;;;4392306;32;20074;-61
2022/01/29 03:18:21;;;;;;;12.57;7.45;;;-9.30;99.90;;;;;;4391747;32;20077;-62
2022/01/29 03:20:47;;;;;;;12.30;7.22;;;-9.30;99.90;;;;;;4392099;32;20150;-63
2022/01/29 03:25:54;;;;;;;10.20;6.43;;;-9.20;99.90;;;;;;3857495;37;20062;-64
2022/01/29 03:28:21;;;;;;;11.38;7.28;;;-9.20;99.90;;;;;;4419974;32;20574;-63
2022/01/29 03:30:47;;;;;;;12.40;6.90;;;-9.20;99.90;;;;;;4393116;32;20523;-62
2022/01/29 03:33:13;;;;;;;11.93;7.10;;;-9.20;99.90;;;;;;4406059;32;20092;-64
2022/01/29 03:35:40;;;;;;;11.20;6.68;;;-9.20;99.90;;;;;;4418395;32;20089;-63
2022/01/29 03:38:07;;;;;;;12.68;7.20;;;-9.30;99.90;;;;;;4420028;32;20108;-64
2022/01/29 03:40:34;;;;;;;10.15;7.12;;;-9.30;99.90;;;;;;4405561;32;20070;-62
2022/01/29 03:43:04;;;;;;;11.80;6.75;;;-9.10;99.90;;;;;;4418276;32;20073;-62
2022/01/29 03:45:31;;;;;;;12.50;7.68;;;-9.30;99.90;;;;;;4418034;32;20072;-62
2022/01/29 03:47:58;;;;;;;12.27;7.35;;;-9.30;99.90;;;;;;4418653;32;20096;-62
2022/01/29 03:50:24;;;;;;;14.35;7.10;;;-9.20;99.90;;;;;;4419610;32;20092;-62
2022/01/29 03:52:51;;;;;;;9.88;6.40;;;-9.30;99.90;;;;;;4406016;32;20089;-63
2022/01/29 03:55:18;;;;;;;11.12;7.28;;;-9.40;99.90;;;;;;4405846;32;20089;-63
2022/01/29 03:57:44;;;;;;;11.10;6.62;;;-9.40;99.90;;;;;;4418853;32;20074;-63
2022/01/29 04:00:12;;;;;;;11.82;7.45;;;-9.40;99.90;;;;;;4404987;32;20450;-63
2022/01/29 04:02:38;;;;;;;12.10;6.93;;;-9.40;99.90;;;;;;4419238;32;20178;-62
2022/01/29 04:05:05;;;;;;;12.52;6.50;;;-9.40;99.90;;;;;;4417768;32;20478;-62
2022/01/29 04:07:31;;;;;;;10.20;6.50;;;-9.50;99.90;;;;;;4418047;32;20100;-62
2022/01/29 04:09:59;;;;;;;10.68;6.75;;;-9.50;99.90;;;;;;4419197;32;20065;-62
2022/01/29 04:12:29;;;;;;;11.88;6.80;;;-9.50;99.90;;;;;;4417607;32;20081;-63
2022/01/29 04:14:57;;;;;;;11.77;6.72;;;-9.40;99.90;;;;;;4418313;32;20081;-64
2022/01/29 04:17:24;;;;;;;11.50;6.32;;;-9.40;99.90;;;;;;4405151;32;20069;-62
2022/01/29 04:19:50;;;;;;;12.30;7.65;;;-9.40;99.90;;;;;;4417899;32;20092;-64
2022/01/29 04:22:17;;;;;;;10.07;7.12;;;-9.40;99.90;;;;;;4418244;32;20096;-63
2022/01/29 04:24:43;;;;;;;12.48;7.28;;;-9.40;99.90;;;;;;4405191;32;20085;-62
2022/01/29 04:27:17;;;;;;;11.65;7.25;;;-9.40;99.90;;;;;;4405404;32;20089;-62
2022/01/29 04:29:56;;;;;;;11.55;6.57;;;-9.30;99.90;;;;;;4417613;32;20148;-62
2022/01/29 04:33:23;;;;;;;11.95;7.20;;;-9.20;99.90;;;;;;4419240;32;20073;-62
2022/01/29 04:35:09;;;;;;;11.12;6.97;;;-9.20;99.90;;;;;;4407911;32;20462;-62
2022/01/29 04:37:36;;;;;;;11.90;7.87;;;-9.30;99.90;;;;;;4407727;32;20073;-62
2022/01/29 04:40:03;;;;;;;11.98;7.25;;;-9.20;99.90;;;;;;4394657;32;20089;-62
2022/01/29 04:42:30;;;;;;;11.40;7.03;;;-9.30;99.90;;;;;;4407778;32;20084;-62
2022/01/29 04:44:56;;;;;;;12.70;6.97;;;-9.30;99.90;;;;;;4409378;32;20076;-62
2022/01/29 04:47:22;;;;;;;11.15;7.25;;;-9.40;99.90;;;;;;4408924;32;20076;-63
2022/01/29 04:49:49;;;;;;;12.48;7.43;;;-9.30;99.90;;;;;;4409149;32;20082;-62
2022/01/29 04:52:15;;;;;;;11.93;7.03;;;-9.30;99.90;;;;;;4411202;32;20076;-63
2022/01/29 04:54:42;;;;;;;11.90;7.35;;;-9.30;99.90;;;;;;4412855;32;20072;-63
2022/01/29 04:57:08;;;;;;;12.93;7.60;;;-9.30;99.90;;;;;;4416097;32;20092;-62
2022/01/29 04:59:34;;;;;;;11.77;7.00;;;-9.20;99.90;;;;;;4416766;32;20081;-62
2022/01/29 05:02:01;;;;;;;12.68;7.22;;;-9.30;99.90;;;;;;4409085;32;20169;-63
2022/01/29 05:04:27;;;;;;;12.82;7.07;;;-9.40;99.90;;;;;;4409154;32;20089;-62
2022/01/29 05:06:53;;;;;;;13.07;6.90;;;-9.30;99.90;;;;;;4396778;32;20081;-64
2022/01/29 05:09:20;;;;;;;12.35;6.32;;;-9.40;99.90;;;;;;4409509;32;20085;-62
2022/01/29 05:11:49;;;;;;;12.25;7.68;;;-9.50;99.90;;;;;;4407465;32;20089;-62
2022/01/29 05:14:31;;;;;;;12.27;7.72;;;-9.40;99.90;;;;;;4408942;32;20081;-62
2022/01/29 05:27:48;;;;;;;10.05;6.80;;;-9.40;99.90;;;;;;4406905;32;20073;-63
2022/01/29 05:30:14;;;;;;;12.73;7.22;;;-9.20;99.90;;;;;;4408011;32;20073;-63
2022/01/29 05:32:40;;;;;;;11.68;6.85;;;-9.20;99.90;;;;;;4393964;32;20062;-62
2022/01/29 05:35:07;;;;;;;10.90;5.62;;;-9.10;99.90;;;;;;4406398;32;20162;-62
2022/01/29 05:37:33;;;;;;;9.43;5.68;;;-9.00;99.90;;;;;;4393649;32;20062;-63
2022/01/29 05:40:00;;;;;;;10.23;6.35;;;-9.00;99.90;;;;;;4409385;32;20066;-62
2022/01/29 05:42:26;;;;;;;10.07;6.00;;;-9.10;99.90;;;;;;4411259;32;20145;-62
2022/01/29 05:44:53;;;;;;;10.40;5.85;;;-9.00;99.90;;;;;;4398138;32;20475;-63
2022/01/29 05:47:19;;;;;;;11.00;5.95;;;-8.80;99.90;;;;;;4393437;32;20086;-63
2022/01/29 05:49:45;;;;;;;9.75;5.75;;;-8.90;99.90;;;;;;4381130;32;20182;-62
2022/01/29 05:52:12;;;;;;;9.57;5.37;;;-8.30;99.90;;;;;;4407734;32;20069;-62
2022/01/29 05:54:38;;;;;;;9.68;5.53;;;-7.60;99.90;;;;;;4406354;32;20092;-63
2022/01/29 05:57:05;;;;;;;12.30;6.53;;;-7.40;99.90;;;;;;4407377;32;20164;-62
2022/01/29 05:59:35;;;;;;;13.68;7.45;;;-7.30;99.90;;;;;;4393186;32;20077;-62
2022/01/29 06:02:01;;;;;;;12.68;7.32;;;-7.60;99.90;;;;;;4407472;32;20077;-62
2022/01/29 06:04:27;;;;;;;11.40;7.15;;;-7.80;99.90;;;;;;4407257;32;20077;-61
2022/01/29 06:06:54;;;;;;;11.93;7.10;;;-7.80;99.90;;;;;;4407146;32;20081;-62
2022/01/29 06:09:20;;;;;;;12.65;6.97;;;-7.80;99.90;;;;;;4393423;32;20455;-62
2022/01/29 06:11:46;;;;;;;12.15;7.40;;;-7.60;99.90;;;;;;4405970;32;20577;-62
2022/01/29 06:14:13;;;;;;;12.45;7.50;;;-8.20;99.90;;;;;;4408889;32;20279;-63
2022/01/29 06:16:39;;;;;;;12.18;7.25;;;-8.30;99.90;;;;;;4409154;32;20078;-62
2022/01/29 06:19:05;;;;;;;11.65;7.37;;;-7.60;99.90;;;;;;4406384;32;20084;-62
2022/01/29 06:21:32;;;;;;;12.63;6.87;;;-7.40;99.90;;;;;;4405699;32;20078;-63
2022/01/29 06:23:59;;;;;;;11.52;6.85;;;-7.00;99.90;;;;;;4392742;32;20108;-62
2022/01/29 06:26:25;;;;;;;12.10;6.78;;;-6.70;99.90;;;;;;4406438;32;20111;-61
2022/01/29 06:28:52;;;;;;;10.98;6.80;;;-7.70;99.90;;;;;;4406172;32;20088;-63
2022/01/29 06:31:19;;;;;;;10.93;6.80;;;-8.20;99.90;;;;;;4405875;32;20094;-62
2022/01/29 06:33:46;;;;;;;11.57;7.07;;;-8.30;99.90;;;;;;4406530;32;20085;-64
2022/01/29 06:36:12;;;;;;;12.93;7.00;;;-8.20;99.90;;;;;;4392896;32;20216;-65
2022/01/29 06:38:39;;;;;;;12.70;7.25;;;-8.20;99.90;;;;;;4392831;32;20093;-62
2022/01/29 06:41:05;;;;;;;10.30;6.72;;;-8.30;99.90;;;;;;4406837;32;20096;-62
2022/01/29 06:43:31;;;;;;;11.65;6.70;;;-8.00;99.90;;;;;;4405376;32;20483;-62
2022/01/29 06:45:58;;;;;;;12.55;7.35;;;-8.40;99.90;;;;;;4392767;32;20066;-62
2022/01/29 06:48:24;;;;;;;11.90;7.75;;;-8.20;99.90;;;;;;4405910;32;20088;-63
2022/01/29 06:50:51;;;;;;;11.25;7.03;;;-8.00;99.90;;;;;;4406638;32;20095;-62
2022/01/29 06:53:17;;;;;;;13.25;7.45;;;-7.80;99.90;;;;;;4404957;32;20173;-62
2022/01/29 06:55:44;;;;;;;10.18;6.97;;;-8.00;99.90;;;;;;4406937;32;20072;-62
2022/01/29 06:58:10;;;;;;;12.25;8.10;;;-8.10;99.90;;;;;;4393148;32;20074;-61
2022/01/29 07:00:36;;;;;;;10.98;7.62;;;-7.90;99.90;;;;;;4405097;32;20574;-62
2022/01/29 07:03:03;;;;;;;13.30;8.13;;;-7.70;99.90;;;;;;4393519;32;20104;-61
2022/01/29 07:05:29;;;;;;;12.40;6.95;;;-7.70;99.90;;;;;;4380559;32;20089;-62
2022/01/29 07:07:56;;;;;;;10.57;7.47;;;-7.40;99.90;;;;;;4405504;32;20120;-62
2022/01/29 07:10:22;;;;;;;13.88;7.43;;;-7.50;99.90;;;;;;4393106;32;20077;-64
2022/01/29 07:12:48;;;;;;;11.63;7.10;;;-7.30;99.90;;;;;;4405640;32;20070;-62
2022/01/29 07:15:15;;;;;;;13.25;7.80;;;-7.90;99.90;;;;;;4405426;32;20082;-62
2022/01/29 07:17:41;;;;;;;11.23;6.97;;;-7.70;99.90;;;;;;4405366;32;20155;-62
2022/01/29 07:20:08;;;;;;;10.13;7.18;;;-7.80;99.90;;;;;;4405016;32;20078;-61
2022/01/29 07:22:35;;;;;;;12.40;7.65;;;-7.50;99.90;;;;;;4392677;32;20081;-63
2022/01/29 07:25:01;;;;;;;11.35;7.10;;;-7.20;99.90;;;;;;4393133;32;20256;-63
2022/01/29 07:27:28;;;;;;;12.80;7.53;;;-7.50;99.90;;;;;;4407625;32;20077;-62
2022/01/29 07:29:54;;;;;;;12.37;7.57;;;-7.40;99.90;;;;;;4407072;32;20092;-61
2022/01/29 07:32:20;;;;;;;13.48;7.18;;;-7.40;99.90;;;;;;4407179;32;20080;-61
2022/01/29 07:34:47;;;;;;;11.70;6.87;;;-7.60;99.90;;;;;;4392966;32;20082;-63
2022/01/29 07:37:13;;;;;;;13.90;7.55;;;-7.50;99.90;;;;;;4393891;32;20081;-63
2022/01/29 07:39:39;;;;;;;11.30;7.12;;;-7.40;99.90;;;;;;4405782;32;20070;-63
2022/01/29 07:42:06;;;;;;;8.95;6.43;;;-7.50;99.90;;;;;;4406956;32;20164;-61
2022/01/29 07:44:33;;;;;;;12.02;6.62;;;-7.30;99.90;;;;;;4405246;32;20097;-61
2022/01/29 07:46:59;;;;;;;11.18;6.90;;;-7.20;99.90;;;;;;4406744;32;20266;-62
2022/01/29 07:49:25;;;;;;;10.88;6.55;;;-7.20;99.90;;;;;;4404934;32;20070;-60
2022/01/29 07:51:52;;;;;;;11.52;7.15;;;-7.30;99.90;;;;;;4404902;32;20195;-62
2022/01/29 07:54:18;;;;;;;12.37;7.15;;;-6.90;99.90;;;;;;4405213;32;20160;-61
2022/01/29 07:56:44;;;;;;;10.38;6.97;;;-7.20;99.90;;;;;;4392225;32;20093;-60
2022/01/29 07:59:11;;;;;;;11.57;7.07;;;-7.10;99.90;;;;;;4405387;32;20092;-62
2022/01/29 08:01:37;;;;;;;11.30;6.70;;;-6.90;99.90;;;;;;4404901;32;20165;-62
2022/01/29 08:04:04;;;;;;;9.57;6.68;;;-6.90;99.90;;;;;;4392087;32;20111;-62
2022/01/29 08:06:31;;;;;;;10.43;6.75;;;-6.50;99.90;;;;;;4405660;32;20534;-60
2022/01/29 08:08:57;;;;;;;10.05;6.78;;;-7.30;99.90;;;;;;4392230;32;20085;-61
2022/01/29 08:11:25;;;;;;;13.05;7.07;;;-7.10;99.90;;;;;;4407446;32;20065;-60
2022/01/29 08:13:51;;;;;;;11.77;6.90;;;-6.90;99.90;;;;;;4408868;32;20180;-61
2022/01/29 08:16:18;;;;;;;10.80;7.20;;;-6.60;99.90;;;;;;4410250;32;20498;-60
2022/01/29 08:18:45;;;;;;;11.02;6.90;;;-6.90;99.90;;;;;;4408952;32;20084;-60
2022/01/29 08:21:13;;;;;;;11.00;7.05;;;-7.30;99.90;;;;;;4409021;32;20507;-61
2022/01/29 08:23:41;;;;;;;10.32;6.70;;;-6.70;99.90;;;;;;4382989;32;20085;-61
2022/01/29 08:26:07;;;;;;;12.20;7.80;;;-6.30;99.90;;;;;;4408323;32;20081;-62
2022/01/29 08:28:34;;;;;;;10.88;6.90;;;-6.60;99.90;;;;;;4382029;32;20089;-62
2022/01/29 08:31:00;;;;;;;11.18;6.43;;;-6.50;99.90;;;;;;4395606;32;20096;-65
2022/01/29 08:33:27;;;;;;;10.18;6.87;;;-6.70;99.90;;;;;;4395692;32;20331;-62
2022/01/29 08:35:53;;;;;;;12.00;7.03;;;-7.00;99.90;;;;;;4410560;32;20086;-62
2022/01/29 08:38:21;;;;;;;12.55;7.45;;;-7.00;99.90;;;;;;4409794;32;20069;-61
2022/01/29 08:40:47;;;;;;;11.12;7.03;;;-7.00;99.90;;;;;;4382738;32;20526;-60
2022/01/29 08:43:14;;;;;;;12.32;7.28;;;-6.80;99.90;;;;;;4382586;32;20119;-62
2022/01/29 08:45:41;;;;;;;11.65;7.25;;;-6.50;99.90;;;;;;4408867;32;20100;-61
2022/01/29 08:48:07;;;;;;;12.68;7.45;;;-6.50;99.90;;;;;;4408280;32;20089;-62
2022/01/29 08:50:34;;;;;;;12.30;7.28;;;-7.00;99.90;;;;;;4409668;32;20080;-67
2022/01/29 08:53:00;;;;;;;10.68;7.00;;;-7.30;99.90;;;;;;4383881;32;20096;-60
2022/01/29 08:55:27;;;;;;;11.93;6.95;;;-7.20;99.90;;;;;;4408508;32;20093;-61
2022/01/29 08:57:53;;;;;;;11.02;7.45;;;-7.10;99.90;;;;;;4408924;32;20076;-60
2022/01/29 09:00:20;;;;;;;10.10;6.72;;;-7.10;99.90;;;;;;4395512;32;20081;-61
2022/01/29 09:02:46;;;;;;;12.35;7.40;;;-7.10;99.90;;;;;;4407232;32;20131;-61
2022/01/29 09:05:13;;;;;;;11.43;7.28;;;-7.10;99.90;;;;;;4407252;32;20104;-60
2022/01/29 09:07:40;;;;;;;10.68;6.78;;;-7.10;99.90;;;;;;4382099;32;20098;-61
2022/01/29 09:10:07;;;;;;;12.63;7.57;;;-6.80;99.90;;;;;;4406956;32;20158;-61
2022/01/29 09:12:34;;;;;;;11.15;6.90;;;-6.50;99.90;;;;;;4407237;32;20498;-61
2022/01/29 09:15:00;;;;;;;11.52;7.30;;;-6.20;99.90;;;;;;4408456;32;20077;-62
2022/01/29 09:17:26;;;;;;;11.30;7.60;;;-6.50;99.90;;;;;;4407143;32;20085;-61
2022/01/29 09:19:53;;;;;;;11.73;7.87;;;-6.80;99.90;;;;;;4406959;32;20081;-61
2022/01/29 09:22:19;;;;;;;11.63;7.22;;;-6.70;99.90;;;;;;4394900;32;20084;-61
2022/01/29 09:24:46;;;;;;;9.88;6.35;;;-6.80;99.90;;;;;;4394615;32;20104;-62
2022/01/29 09:27:12;;;;;;;11.35;7.18;;;-7.00;99.90;;;;;;4394034;32;20078;-62
2022/01/29 09:29:38;;;;;;;11.20;6.90;;;-6.80;99.90;;;;;;4393955;32;20072;-61
2022/01/29 09:32:07;;;;;;;10.82;7.43;;;-6.60;99.90;;;;;;4394582;32;20085;-61
2022/01/29 09:34:33;;;;;;;12.93;7.45;;;-6.50;99.90;;;;;;4382563;32;20097;-61
2022/01/29 09:37:00;;;;;;;11.10;7.30;;;-6.60;99.90;;;;;;4407280;32;20080;-61
2022/01/29 09:39:26;;;;;;;11.50;7.37;;;-6.60;99.90;;;;;;4408001;32;20088;-62
2022/01/29 09:41:55;;;;;;;10.60;6.85;;;-6.90;99.90;;;;;;4410272;32;20526;-61
2022/01/29 09:45:20;;;;;;;10.80;6.62;;;-6.90;99.90;;;;;;3859392;37;20439;-62
2022/01/29 09:47:48;;;;;;;10.95;6.75;;;-6.70;99.90;;;;;;4406714;32;20148;-62
2022/01/29 09:50:17;;;;;;;10.73;7.28;;;-6.50;99.90;;;;;;4419948;32;20072;-61
2022/01/29 09:52:45;;;;;;;11.70;7.65;;;-6.80;99.90;;;;;;4406099;32;20156;-61
2022/01/29 09:55:11;;;;;;;11.52;7.10;;;-6.80;99.90;;;;;;4393534;32;20096;-61
2022/01/29 09:57:39;;;;;;;11.25;7.65;;;-6.60;99.90;;;;;;4393352;32;20074;-62
2022/01/29 10:00:09;;;;;;;12.52;7.85;;;-6.60;99.90;;;;;;4401787;32;20074;-61
2022/01/29 10:02:36;;;;;;;12.20;7.37;;;-6.80;99.90;;;;;;4378174;32;20148;-59
2022/01/29 10:05:04;;;;;;;12.32;6.97;;;-6.70;99.90;;;;;;4390449;32;20566;-61
2022/01/29 10:07:32;;;;;;;10.85;6.80;;;-6.30;99.90;;;;;;4390590;32;20093;-62
2022/01/29 10:10:01;;;;;;;12.05;7.32;;;-6.10;99.90;;;;;;4365947;32;20104;-62
2022/01/29 10:12:32;;;;;;;12.02;7.75;;;-6.10;99.90;;;;;;4367049;32;20097;-61
2022/01/29 10:15:06;;;;;;;10.80;6.75;;;-6.20;99.90;;;;;;4397771;32;20077;-62
2022/01/29 10:17:57;;;;;;;12.23;7.35;;;-6.30;99.90;;;;;;4412879;32;20081;-61
2022/01/29 10:20:29;;;;;;;12.02;8.02;;;-6.60;99.90;;;;;;4386345;32;20072;-61
2022/01/29 10:23:01;;;;;;;12.45;8.52;;;-6.70;99.90;;;;;;4378413;32;20094;-61
2022/01/29 10:25:31;;;;;;;11.98;7.72;;;-6.80;99.90;;;;;;4378279;32;20077;-61
2022/01/29 10:28:19;;;;;;;11.68;7.55;;;-6.60;99.90;;;;;;4377660;32;20575;-61
2022/01/29 10:30:51;;;;;;;11.18;7.72;;;-7.10;99.90;;;;;;4390381;32;20100;-62
2022/01/29 10:33:33;;;;;;;12.02;7.82;;;-6.90;99.90;;;;;;4404146;32;20499;-61
2022/01/29 10:36:10;;;;;;;11.00;7.30;;;-7.10;99.90;;;;;;4377731;32;20081;-62
2022/01/29 10:38:55;;;;;;;10.38;7.45;;;-6.50;99.90;;;;;;4377286;32;20153;-62
2022/01/29 10:41:31;;;;;;;11.02;7.45;;;-6.80;99.90;;;;;;4389671;32;20537;-61
2022/01/29 10:44:16;;;;;;;12.15;7.70;;;-7.10;99.90;;;;;;4403428;32;20116;-61
2022/01/29 10:46:54;;;;;;;12.68;8.23;;;-7.00;99.90;;;;;;4377807;32;20089;-61
2022/01/29 10:49:30;;;;;;;14.23;8.25;;;-7.00;99.90;;;;;;4389601;32;20085;-61
2022/01/29 10:51:59;;;;;;;11.73;7.80;;;-7.40;99.90;;;;;;4390369;32;20455;-62
2022/01/29 10:54:27;;;;;;;11.20;7.50;;;-7.70;99.90;;;;;;4389688;32;20081;-61
2022/01/29 10:57:01;;;;;;;13.05;8.35;;;-7.50;99.90;;;;;;4367365;32;20090;-63
2022/01/29 10:59:31;;;;;;;12.93;8.13;;;-7.50;99.90;;;;;;4393993;32;20576;-62
2022/01/29 11:02:07;;;;;;;13.35;8.70;;;-7.50;99.90;;;;;;4379558;32;20483;-62
2022/01/29 11:04:37;;;;;;;11.75;8.13;;;-7.40;99.90;;;;;;4379804;32;20070;-62
2022/01/29 11:07:14;;;;;;;13.88;8.18;;;-7.40;99.90;;;;;;4380103;32;20088;-61
2022/01/29 11:09:47;;;;;;;13.25;8.40;;;-7.30;99.90;;;;;;4380467;32;20519;-62
2022/01/29 11:12:22;;;;;;;11.32;7.62;;;-7.50;99.90;;;;;;4393475;32;20090;-61
2022/01/29 11:14:52;;;;;;;12.13;7.60;;;-7.30;99.90;;;;;;4367772;32;20081;-61
2022/01/29 11:17:19;;;;;;;13.38;7.97;;;-7.40;99.90;;;;;;4354914;32;20082;-61
2022/01/29 11:19:46;;;;;;;11.23;8.07;;;-7.30;99.90;;;;;;4367208;32;20152;-63
2022/01/29 11:22:14;;;;;;;11.75;7.97;;;-7.00;99.90;;;;;;4379507;32;20173;-60
2022/01/29 11:24:42;;;;;;;13.70;7.40;;;-7.10;99.90;;;;;;4366640;32;20456;-63
2022/01/29 11:27:31;;;;;;;11.52;7.62;;;-7.30;99.90;;;;;;4368076;32;20078;-62
2022/01/29 11:30:10;;;;;;;13.15;8.77;;;-7.60;99.90;;;;;;4366420;32;20521;-61
2022/01/29 11:32:42;;;;;;;12.15;7.57;;;-7.80;99.90;;;;;;4392901;32;20058;-61
2022/01/29 11:35:13;;;;;;;12.82;7.53;;;-7.70;99.90;;;;;;4393590;32;20073;-61
2022/01/29 11:38:02;;;;;;;12.95;7.78;;;-7.80;99.90;;;;;;4354505;32;20087;-64
2022/01/29 11:40:45;;;;;;;12.43;7.50;;;-8.00;99.90;;;;;;4379485;32;20572;-61
2022/01/29 11:43:17;;;;;;;12.55;7.68;;;-8.00;99.90;;;;;;4367546;32;20454;-61
2022/01/29 11:45:49;;;;;;;11.57;7.18;;;-7.90;99.90;;;;;;4379688;32;20062;-61
2022/01/29 11:48:33;;;;;;;13.45;8.27;;;-8.00;99.90;;;;;;4366799;32;20139;-61
2022/01/29 11:51:05;;;;;;;11.57;7.78;;;-8.10;99.90;;;;;;4366646;32;20082;-61
2022/01/29 11:53:58;;;;;;;11.80;7.78;;;-8.10;99.90;;;;;;4379139;32;20470;-62
2022/01/29 11:56:32;;;;;;;14.52;8.70;;;-8.10;99.90;;;;;;4378115;32;20086;-61
2022/01/29 11:59:17;;;;;;;13.48;8.65;;;-8.20;99.90;;;;;;4366710;32;20090;-62
2022/01/29 12:02:05;;;;;;;12.23;7.60;;;-8.30;99.90;;;;;;4378723;32;20132;-62
2022/01/29 12:04:55;;;;;;;11.82;7.68;;;-8.20;99.90;;;;;;4368827;32;20082;-61
2022/01/29 12:10:14;;;;;;;12.37;8.00;;;-8.30;99.90;;;;;;4379936;32;20126;-61
2022/01/29 12:12:45;;;;;;;12.77;7.93;;;-8.30;99.90;;;;;;4368201;32;20140;-61
2022/01/29 12:15:11;;;;;;;13.43;8.35;;;-8.40;99.90;;;;;;4380341;32;20205;-62
2022/01/29 12:17:48;;;;;;;13.30;7.87;;;-8.30;99.90;;;;;;4392409;32;20074;-62
2022/01/29 12:20:26;;;;;;;13.62;7.87;;;-8.20;99.90;;;;;;4378717;32;20100;-62
2022/01/29 12:23:02;;;;;;;12.75;7.40;;;-8.20;99.90;;;;;;4365849;32;20499;-62
2022/01/29 12:25:29;;;;;;;12.68;7.95;;;-8.30;99.90;;;;;;4366914;32;20097;-61
2022/01/29 12:28:01;;;;;;;13.18;8.02;;;-8.10;99.90;;;;;;4354128;32;20549;-61
2022/01/29 12:30:34;;;;;;;12.73;7.87;;;-8.20;99.90;;;;;;4367801;32;20166;-61
2022/01/29 12:33:13;;;;;;;13.05;8.52;;;-8.10;99.90;;;;;;4379857;32;20191;-61
2022/01/29 12:36:02;;;;;;;12.88;8.02;;;-8.00;99.90;;;;;;4366954;32;20167;-60
2022/01/29 12:38:37;;;;;;;13.00;8.23;;;-8.10;99.90;;;;;;4378842;32;20444;-61
2022/01/29 12:41:28;;;;;;;12.13;7.45;;;-8.20;99.90;;;;;;4366457;32;20170;-64
2022/01/29 12:44:00;;;;;;;12.45;7.15;;;-8.30;99.90;;;;;;4378962;32;20116;-61
2022/01/29 12:46:30;;;;;;;12.40;6.97;;;-8.10;99.90;;;;;;4392785;32;20073;-61
2022/01/29 12:49:07;;;;;;;13.52;8.48;;;-8.20;99.90;;;;;;4354244;32;20073;-62
2022/01/29 12:51:55;;;;;;;11.20;7.35;;;-8.10;99.90;;;;;;4365952;32;20074;-61
2022/01/29 12:54:23;;;;;;;15.88;7.55;;;-7.90;99.90;;;;;;4366766;32;20089;-63
2022/01/29 12:56:50;;;;;;;12.75;7.80;;;-8.00;99.90;;;;;;4366577;32;20073;-63
2022/01/29 12:59:18;;;;;;;13.00;8.13;;;-8.00;99.90;;;;;;4365937;32;20069;-62
2022/01/29 13:01:46;;;;;;;11.95;7.50;;;-8.20;99.90;;;;;;4377807;32;20157;-62
2022/01/29 13:04:20;;;;;;;11.65;7.90;;;-8.00;99.90;;;;;;4365274;32;20081;-60
2022/01/29 13:06:58;;;;;;;11.90;7.32;;;-7.90;99.90;;;;;;4353258;32;20089;-62